Create Tblcommutelog Verified Points Advance Search
| # | Trip ID | Id Commuter | Trip Date | Trip Num | Current Lat | Current Lng | Delta Distance | Current Time | Activity | Activity Confidence | Current Speed | |
|---|---|---|---|---|---|---|---|---|---|---|---|---|
| 73401 | 260331_758537_16625007_1744 | 758537 | (not set) | (not set) | 38.923517658916 | -77.054012208097 | 0.2586 | 2026-03-31 17:46:45 | on_foot | 100 | 0.41127611826871 | |
| 73402 | 260331_758537_16503613_1743 | 758537 | (not set) | (not set) | 38.923615171476 | -77.052723392072 | 1.3014 | 2026-03-31 17:56:49 | on_foot | 100 | 0.33080905165092 | |
| 73403 | 260331_790809_16659881_1632 | 790809 | (not set) | (not set) | 38.9919077 | -76.9493619 | 0 | 2026-03-31 16:32:56 | still | 100 | 0.29951630352178 | |
| 73404 | 260331_788958_16657710_1622 | 788958 | (not set) | (not set) | 39.147360396844 | -76.89896858558 | 1.3814 | 2026-03-31 16:35:40 | in_vehicle | 100 | 11.989592926051 | |
| 73405 | 260331_788958_16657710_1622 | 788958 | (not set) | (not set) | 39.129465418608 | -76.920988086583 | 3.133 | 2026-03-31 16:37:19 | in_vehicle | 100 | 11.028458519227 | |
| 73406 | 260331_786988_16655407_1630 | 786988 | (not set) | (not set) | 38.800076453075 | -77.069629571146 | 0.2914 | 2026-03-31 16:38:25 | on_foot | 100 | 0.62585496258281 | |
| 73407 | 260331_786988_16655407_1630 | 786988 | (not set) | (not set) | 38.800427900108 | -77.070698102824 | 0.3551 | 2026-03-31 16:39:46 | on_foot | 100 | 0.4515096515776 | |
| 73408 | 260331_784980_16653028_1637 | 784980 | (not set) | (not set) | 38.998301442156 | -77.100906651873 | 0.1849 | 2026-03-31 16:41:02 | on_foot | 100 | -0.44703925898772 | |
| 73409 | 260331_788958_16657710_1622 | 788958 | (not set) | (not set) | 39.069500110921 | -76.958405209745 | 7.7623 | 2026-03-31 16:42:54 | in_vehicle | 100 | 9.7678078088818 | |
| 73410 | 260331_788958_16657710_1622 | 788958 | (not set) | (not set) | 39.056429029159 | -76.971152498369 | 8.9147 | 2026-03-31 16:46:30 | in_vehicle | 100 | 6.1289082407217 | |
| 73411 | 260331_788958_16657710_1622 | 788958 | (not set) | (not set) | 39.046819888189 | -76.986596934156 | 9.9775 | 2026-03-31 16:48:15 | in_vehicle | 100 | 8.1137625506272 | |
| 73412 | 260331_787174_16656765_1650 | 787174 | (not set) | (not set) | 38.948547363281 | -76.871953709123 | 0 | 2026-03-31 16:50:25 | unknown | 100 | 0 | |
| 73413 | 260331_784980_16653028_1637 | 784980 | (not set) | (not set) | 39.025754525017 | -77.102768964807 | 2.2625 | 2026-03-31 16:51:39 | in_vehicle | 100 | 9.4101764016916 | |
| 73414 | 260331_788958_16657710_1622 | 788958 | (not set) | (not set) | 39.016262627463 | -77.016367858655 | 12.6884 | 2026-03-31 16:53:00 | in_vehicle | 100 | 8.4088084615591 | |
| 73415 | 260331_787174_16656765_1650 | 787174 | (not set) | (not set) | 38.939776202981 | -76.882553296835 | 0.8367 | 2026-03-31 16:53:43 | in_vehicle | 100 | 12.186290200005 | |
| 73416 | 260331_786988_16655407_1630 | 786988 | (not set) | (not set) | 38.797450421501 | -77.070820530052 | 1.2534 | 2026-03-31 16:55:00 | on_foot | 100 | 0.54538789596502 | |
| 73417 | 260331_784980_16653028_1637 | 784980 | (not set) | (not set) | 39.058680301569 | -77.116350391951 | 4.6556 | 2026-03-31 16:55:55 | in_vehicle | 100 | 11.994063318641 | |
| 73418 | 260331_788958_16657710_1622 | 788958 | (not set) | (not set) | 39.000207495012 | -77.025787626054 | 13.9432 | 2026-03-31 16:57:31 | in_vehicle | 100 | 3.4109095460763 | |
| 73419 | 260331_788958_16657710_1622 | 788958 | (not set) | (not set) | 38.997753585802 | -77.027082112362 | 14.1269 | 2026-03-31 16:59:24 | in_vehicle | 100 | 3.4153799386662 | |
| 73420 | 260331_790203_16659191_1631 | 790203 | (not set) | (not set) | 38.928688612205 | -77.032941968484 | 3.5686 | 2026-03-31 17:01:11 | in_vehicle | 100 | -0.44703925898772 |